• Join FlightAware (Why Join?)
  • Login
  • US Flag 
01:07PM EDT


 

Airport Tracker/Info


-or-


 

Live Flight TrackerFlight Track Log ✈ SKW4632 ✈ 18-Aug-2013 ✈ KSLC - KMSO

Flight Track Log - Related Links

Times and Time Zones

All times are in EDT time to prevent confusion due to time zone crossing. See the SKW4632 flight status page for this flight to view local times or setup timezone preferences in your user account.

Time Position Orientation Groundspeed Altitude Reporting Facility
EDT Latitude Longitude Course Direction KTS MPH feet Rate Location/Type
01:13PM 40.7692 -111.9978 50° Northeast 194 223 4,900  Level Salt Lake Center
01:14PM 40.7447 -112.0372 231° Southwest 207 238 6,700 1,740 Climbing Salt Lake Center
01:15PM 40.7589 -112.0733 297° West 225 259 7,400 1,500 Climbing Salt Lake Center
01:16PM 40.8239 -112.1042 340° North 257 296 9,200 1,680 Climbing Salt Lake Center
01:17PM 41.0105 -112.1497 81° East  Level FlightAware Approximate
01:17PM 40.9017 -112.1225 350° North 287 330 10,900  Level Salt Lake Center
01:18PM 41.0667 -112.0254 90° East  Level FlightAware Approximate
01:18PM 41.0006 -112.1536 347° North 305 351 12,700  Level Salt Lake Center
01:19PM 41.1340 -111.9372 50° Northeast  Level FlightAware Approximate
01:19PM 41.0883 -112.1789 348° North 319 367 14,600  Level Salt Lake Center
01:20PM 41.1756 -112.2058 347° North 318 366 16,300 1,500 Climbing Salt Lake Center
01:21PM 41.2656 -112.2331 347° North 330 380 17,800 1,260 Climbing Salt Lake Center
01:22PM 41.3586 -112.2600 348° North 341 392 19,000 1,140 Climbing Salt Lake Center
01:23PM 41.4528 -112.2889 347° North 350 403 20,200 1,140 Climbing Salt Lake Center
01:24PM 41.5503 -112.3178 347° North 358 412 21,400 1,200 Climbing Salt Lake Center
01:25PM 41.6689 -112.3536 347° North 365 420 22,700 1,080 Climbing Salt Lake Center
01:26PM 41.7700 -112.3850 347° North 372 428 23,700 960 Climbing Salt Lake Center
01:27PM 41.8714 -112.4158 347° North 372 428 24,700 960 Climbing Salt Lake Center
01:28PM 41.9758 -112.4439 349° North 379 436 25,700 840 Climbing Salt Lake Center
01:29PM 42.0792 -112.4753 347° North 380 437 26,500 600 Climbing Salt Lake Center
01:30PM 42.1836 -112.5061 348° North 383 441 27,000 600 Climbing Salt Lake Center
01:31PM 42.3131 -112.5456 347° North 393 452 27,800 600 Climbing Salt Lake Center
01:32PM 42.4197 -112.5797 347° North 395 455 28,300 480 Climbing Salt Lake Center
01:33PM 42.5292 -112.6131 347° North 400 460 28,800 480 Climbing Salt Lake Center
01:34PM 42.6389 -112.6461 348° North 404 465 29,400 480 Climbing Salt Lake Center
01:35PM 42.7606 -112.6861 346° North 404 465 29,900 480 Climbing Salt Lake Center
01:36PM 42.8669 -112.7203 347° North 407 468 30,400 480 Climbing Salt Lake Center
01:37PM 42.9903 -112.7592 347° North 406 467 31,000 480 Climbing Salt Lake Center
01:38PM 43.0967 -112.7914 348° North 408 470 31,500 480 Climbing Salt Lake Center
01:39PM 43.2189 -112.8311 347° North 405 466 32,000 240 Climbing Salt Lake Center
01:40PM 43.3258 -112.8678 346° North 410 472 32,000  Level Salt Lake Center
01:41PM 43.4344 -112.9022 347° North 414 476 32,000  Level Salt Lake Center
01:42PM 43.5600 -112.9414 347° North 414 476 32,000  Level Salt Lake Center
01:43PM 43.6647 -112.9772 346° North 407 468 32,000  Level Salt Lake Center
01:44PM 43.7883 -113.0161 347° North 406 467 32,000  Level Salt Lake Center
01:46PM 43.8944 -113.0506 347° North 406 467 32,000  Level Salt Lake Center
01:47PM 44.0150 -113.0894 347° North 401 461 32,000  Level Salt Lake Center
01:48PM 44.1211 -113.1264 346° North 406 467 32,000  Level Salt Lake Center
01:49PM 44.2422 -113.1653 347° North 402 463 32,000  Level Salt Lake Center
01:50PM 44.3469 -113.1994 347° North 401 461 32,000  Level Salt Lake Center
01:51PM 44.4717 -113.2411 347° North 407 468 32,000  Level Salt Lake Center
01:52PM 44.5772 -113.2772 346° North 407 468 32,000  Level Salt Lake Center
01:53PM 44.6822 -113.3117 347° North 405 466 32,000  Level Salt Lake Center
01:54PM 44.8047 -113.3522 347° North 404 465 32,000  Level Salt Lake Center
01:55PM 44.9097 -113.3883 346° North 405 466 32,000  Level Salt Lake Center
01:56PM 45.0317 -113.4294 347° North 403 464 32,000  Level Salt Lake Center
01:57PM 45.1375 -113.4647 347° North 406 467 32,000  Level Salt Lake Center
01:58PM 45.2594 -113.5072 346° North 406 467 32,000  Level Salt Lake Center
01:59PM 45.3600 -113.5411 347° North 407 468 32,000  Level Salt Lake Center
02:00PM 45.4686 -113.5786 346° North 402 463 32,000  Level Salt Lake Center
02:01PM 45.5875 -113.6206 346° North 403 464 32,000 -780 Level Salt Lake Center
02:02PM 45.6942 -113.6556 347° North 405 466 30,400 -2,280 Descending Salt Lake Center
02:03PM 45.8036 -113.6925 347° North 404 465 27,300 -3,300 Descending Salt Lake Center
02:04PM 45.9331 -113.7406 346° North 403 464 23,700 -3,000 Descending Salt Lake Center
02:05PM 46.0361 -113.7756 347° North 385 443 21,200 -2,280 Descending Salt Lake Center
02:06PM 46.1400 -113.8111 347° North 369 425 19,000 -2,160 Descending Salt Lake Center
02:07PM 46.2386 -113.8464 346° North 342 394 16,800 -2,100 Descending Salt Lake Center
02:08PM 46.3261 -113.8778 346° North 327 376 14,700 -1,800 Descending Salt Lake Center
02:09PM 46.4164 -113.9086 347° North 312 359 13,100 -1,500 Descending Salt Lake Center
02:10PM 46.4964 -113.9389 345° North 301 346 11,600 -1,500 Descending Salt Lake Center
02:11PM 46.5814 -113.9678 347° North 294 338 10,100 -1,200 Descending Salt Lake Center
02:12PM 46.6536 -113.9956 345° North 271 312 9,200 -1,020 Descending Salt Lake Center
02:13PM 46.7247 -114.0122 351° North 245 282 8,100 -1,260 Descending Salt Lake Center
02:14PM 46.7872 -114.0203 355° North 230 265 6,600 -1,440 Descending Salt Lake Center
02:16PM 46.8481 -114.0175 North 205 236 5,200 -1,320 Descending Salt Lake Center
02:17PM 46.8842 -114.0367 340° North 156 180 3,900 -1,020 Descending Salt Lake Center
02:18PM 46.9111 -114.0836 310° West 151 174 3,200 -720 Descending Salt Lake Center